Time;durP1;ratioP1;P1;durP2;ratioP2;P2;SDS_P1;SDS_P2;PMS_P1;PMS_P2;Temp;Humidity;BMP_temperature;BMP_pressure;BME280_temperature;BME280_humidity;BME280_pressure;Samples;Min_cycle;Max_cycle;Signal;HPM_P1;HPM_P2
2022/05/16 00:02:08;;;;;;;11.80;4.85;;;;;;;17.61;52.25;101244.91;5088001;28;20059;-71
2022/05/16 00:04:38;;;;;;;9.73;4.88;;;;;;;17.60;52.56;101249.34;5092463;28;20533;-71
2022/05/16 00:07:04;;;;;;;10.07;3.90;;;;;;;17.52;52.19;101247.03;5095960;28;20085;-71
2022/05/16 00:09:29;;;;;;;12.00;4.60;;;;;;;17.49;52.59;101249.84;5093860;28;20036;-71
2022/05/16 00:11:54;;;;;;;9.88;4.53;;;;;;;17.44;52.43;101248.34;5092705;28;20495;-71
2022/05/16 00:14:20;;;;;;;12.73;4.80;;;;;;;17.44;52.77;101249.19;5095092;28;20046;-71
2022/05/16 00:16:45;;;;;;;11.30;4.13;;;;;;;17.40;52.92;101252.88;5094675;28;20464;-71
2022/05/16 00:19:11;;;;;;;14.73;4.57;;;;;;;17.39;52.91;101243.25;5093223;28;20050;-71
2022/05/16 00:21:37;;;;;;;8.05;4.10;;;;;;;17.32;52.85;101237.41;5093142;28;20036;-71
2022/05/16 00:24:03;;;;;;;14.95;4.72;;;;;;;17.29;53.33;101239.31;5089766;28;20028;-71
2022/05/16 00:26:28;;;;;;;12.38;4.75;;;;;;;17.24;52.72;101233.44;5094252;28;20389;-71
2022/05/16 00:28:53;;;;;;;14.95;4.70;;;;;;;17.22;53.55;101228.22;5094887;28;20028;-71
2022/05/16 00:31:18;;;;;;;10.88;4.57;;;;;;;17.25;53.78;101230.72;5090076;28;20275;-71
2022/05/16 00:33:44;;;;;;;7.45;4.25;;;;;;;17.18;53.44;101231.91;5093091;28;20035;-71
2022/05/16 00:36:09;;;;;;;10.05;4.75;;;;;;;17.11;53.27;101229.63;5092467;28;20118;-71
2022/05/16 00:38:35;;;;;;;12.35;4.85;;;;;;;17.09;53.49;101230.53;5095069;28;20063;-71
2022/05/16 00:41:02;;;;;;;13.13;4.75;;;;;;;17.10;54.69;101228.75;5091867;28;20016;-71
2022/05/16 00:43:55;;;;;;;9.38;4.78;;;;;;;17.14;53.55;101225.06;5093178;28;20041;-71
2022/05/16 00:46:22;;;;;;;11.15;5.60;;;;;;;17.17;53.60;101229.38;5093179;28;20050;-71
2022/05/16 00:48:47;;;;;;;8.82;4.63;;;;;;;17.14;54.50;101232.97;5089110;28;20118;-71
2022/05/16 00:51:22;;;;;;;14.93;4.70;;;;;;;17.08;53.59;101220.94;5092050;28;20440;-71
2022/05/16 00:53:50;;;;;;;8.95;4.10;;;;;;;17.12;54.63;101231.34;5088482;28;20036;-71
2022/05/16 00:56:17;;;;;;;14.13;5.10;;;;;;;17.00;54.22;101222.19;5076690;28;20141;-71
2022/05/16 00:58:43;;;;;;;12.88;4.95;;;;;;;17.08;55.06;101225.34;5089488;28;20081;-71
2022/05/16 01:04:47;;;;;;;9.85;4.63;;;;;;;17.02;54.51;101217.72;5085885;28;20096;-71
2022/05/16 01:06:40;;;;;;;13.52;4.57;;;;;;;16.95;55.25;101217.13;5094576;28;20396;-71
2022/05/16 01:09:06;;;;;;;13.75;5.18;;;;;;;16.81;55.03;101214.25;5094410;28;20020;-71
2022/05/16 01:11:33;;;;;;;11.98;4.65;;;;;;;16.77;55.26;101216.13;5091368;28;20027;-71
2022/05/16 01:13:58;;;;;;;10.32;4.72;;;;;;;16.73;55.07;101213.69;5090491;28;20061;-71
2022/05/16 01:16:23;;;;;;;10.52;4.82;;;;;;;16.73;56.00;101221.59;5081475;28;20036;-71
2022/05/16 01:18:48;;;;;;;13.38;4.95;;;;;;;16.70;55.63;101221.72;5073146;28;20055;-71
2022/05/16 01:21:32;;;;;;;12.77;5.13;;;;;;;16.65;54.76;101221.94;5073873;28;20020;-71
2022/05/16 01:24:14;;;;;;;8.65;4.63;;;;;;;16.67;55.78;101229.75;5074136;28;20133;-71
2022/05/16 01:26:41;;;;;;;9.80;4.97;;;;;;;16.64;56.51;101235.97;5072884;28;20090;-71
2022/05/16 01:29:09;;;;;;;10.60;4.43;;;;;;;16.64;56.29;101220.19;5091001;28;20450;-71
2022/05/16 01:31:34;;;;;;;14.57;5.35;;;;;;;16.60;56.11;101222.09;5091580;28;20033;-71
2022/05/16 01:34:00;;;;;;;13.75;5.25;;;;;;;16.57;56.43;101224.84;5092666;28;20031;-71
2022/05/16 01:36:26;;;;;;;13.98;5.03;;;;;;;16.50;56.80;101212.88;5093553;28;20437;-71
2022/05/16 01:38:52;;;;;;;13.20;4.80;;;;;;;16.50;57.44;101223.41;5092716;28;20036;-71
2022/05/16 01:41:20;;;;;;;9.82;4.97;;;;;;;16.43;57.09;101223.75;5091347;28;20046;-71
2022/05/16 01:43:48;;;;;;;10.35;4.82;;;;;;;16.45;57.85;101220.13;5093664;28;20020;-71
2022/05/16 01:46:20;;;;;;;12.60;4.70;;;;;;;16.34;56.76;101202.13;5077014;28;20040;-71
2022/05/16 01:48:45;;;;;;;14.80;5.43;;;;;;;16.43;57.01;101198.28;5092974;28;20031;-71
2022/05/16 01:51:12;;;;;;;11.27;4.97;;;;;;;16.42;57.03;101214.16;5093557;28;20024;-71
2022/05/16 01:53:39;;;;;;;9.52;4.97;;;;;;;16.38;57.81;101206.38;5077958;28;20123;-71
2022/05/16 01:56:04;;;;;;;10.25;4.47;;;;;;;16.31;57.74;101207.53;5085491;28;20075;-71
2022/05/16 01:58:30;;;;;;;11.13;5.05;;;;;;;16.29;58.20;101195.38;5093395;28;20463;-70
2022/05/16 02:00:55;;;;;;;13.10;4.93;;;;;;;16.31;57.81;101193.53;5085542;28;20040;-71
2022/05/16 02:03:21;;;;;;;10.05;4.95;;;;;;;16.23;57.76;101198.25;5086033;28;20078;-71
2022/05/16 02:05:47;;;;;;;11.23;5.13;;;;;;;16.24;58.18;101189.44;5074346;28;20032;-71
2022/05/16 02:08:13;;;;;;;12.15;5.60;;;;;;;16.21;58.21;101193.06;5072222;28;20376;-71
2022/05/16 02:10:40;;;;;;;13.90;5.25;;;;;;;16.26;58.81;101187.63;5085829;28;20098;-71
2022/05/16 02:13:06;;;;;;;15.93;5.13;;;;;;;16.23;58.71;101193.00;5091965;28;20525;-70
2022/05/16 02:15:34;;;;;;;16.67;5.35;;;;;;;16.27;58.37;101186.69;5089650;28;20395;-71
2022/05/16 02:17:59;;;;;;;11.70;4.63;;;;;;;16.26;58.77;101177.09;5090497;28;20369;-71
2022/05/16 02:20:25;;;;;;;10.27;5.00;;;;;;;16.24;58.85;101184.19;5091394;28;20074;-71
2022/05/16 02:25:44;;;;;;;11.23;5.43;;;;;;;16.19;58.42;101178.28;5091211;28;20089;-71
2022/05/16 02:28:12;;;;;;;12.00;5.15;;;;;;;16.18;58.32;101182.66;5092210;28;20445;-71
2022/05/16 02:30:38;;;;;;;14.45;5.35;;;;;;;16.15;59.35;101174.88;5089928;28;20383;-71
2022/05/16 02:33:04;;;;;;;13.35;5.03;;;;;;;16.12;58.74;101175.91;5075218;28;20024;-71
2022/05/16 02:35:32;;;;;;;10.18;5.30;;;;;;;16.14;59.02;101175.81;5090417;28;20486;-71
2022/05/16 02:37:58;;;;;;;10.18;4.95;;;;;;;16.08;59.12;101166.41;5092345;28;20031;-71
2022/05/16 02:40:25;;;;;;;10.63;5.15;;;;;;;16.08;58.96;101162.91;5092523;28;20016;-71
2022/05/16 02:42:51;;;;;;;10.27;5.28;;;;;;;16.08;59.53;101158.50;5088509;28;20515;-71
2022/05/16 02:45:16;;;;;;;12.07;5.15;;;;;;;16.06;59.31;101154.25;5088215;28;20028;-71
2022/05/16 02:47:42;;;;;;;13.32;4.82;;;;;;;16.06;59.04;101155.09;5081532;28;20480;-71
2022/05/16 02:50:08;;;;;;;9.88;4.93;;;;;;;16.07;59.22;101151.53;5087251;28;20441;-71
2022/05/16 02:52:33;;;;;;;8.65;4.40;;;;;;;16.08;59.42;101148.00;5091992;28;20035;-71
2022/05/16 02:55:00;;;;;;;13.50;5.28;;;;;;;16.06;59.21;101152.47;5090910;28;20380;-70
2022/05/16 02:57:26;;;;;;;11.02;5.75;;;;;;;15.97;59.32;101134.44;5085937;28;20387;-71
2022/05/16 02:59:51;;;;;;;8.88;4.68;;;;;;;16.02;59.83;101148.28;5091409;28;20024;-72
2022/05/16 03:02:17;;;;;;;9.93;4.68;;;;;;;15.99;59.55;101140.50;5088768;28;21318;-71
2022/05/16 03:04:43;;;;;;;8.00;4.57;;;;;;;16.00;60.17;101142.22;5076774;28;20032;-71
2022/05/16 03:07:08;;;;;;;10.45;5.00;;;;;;;15.95;59.90;101135.41;5088788;28;20084;-71
2022/05/16 03:09:33;;;;;;;13.15;5.25;;;;;;;15.94;60.05;101136.34;5091858;28;20057;-71
2022/05/16 03:12:00;;;;;;;10.10;4.60;;;;;;;15.94;59.98;101137.19;5090361;28;20035;-71
2022/05/16 03:14:26;;;;;;;12.32;4.97;;;;;;;15.95;60.67;101132.78;5083881;28;20033;-71
2022/05/16 03:16:51;;;;;;;9.48;4.78;;;;;;;15.91;60.31;101135.53;5071495;28;20023;-71
2022/05/16 03:19:17;;;;;;;8.65;4.88;;;;;;;15.86;60.52;101136.66;5071253;28;20043;-71
2022/05/16 03:21:42;;;;;;;8.93;4.78;;;;;;;15.86;60.64;101141.94;5071837;28;20029;-71
2022/05/16 03:24:09;;;;;;;8.82;4.85;;;;;;;15.82;61.04;101135.06;5077488;28;20016;-71
2022/05/16 03:26:35;;;;;;;11.98;5.00;;;;;;;15.81;61.17;101135.97;5090176;28;20032;-71
2022/05/16 03:29:01;;;;;;;8.93;4.50;;;;;;;15.81;61.10;101139.47;5092360;28;20085;-71
2022/05/16 03:31:26;;;;;;;8.50;5.00;;;;;;;15.78;60.74;101136.09;5091732;28;20028;-71
2022/05/16 03:33:52;;;;;;;9.95;5.20;;;;;;;15.80;61.10;101142.16;5089343;28;20097;-71
2022/05/16 03:36:17;;;;;;;8.13;4.70;;;;;;;15.79;61.35;101145.69;5090133;28;20032;-71
2022/05/16 03:41:26;;;;;;;12.55;5.55;;;;;;;15.72;60.86;101137.19;5076034;28;20090;-71
2022/05/16 03:43:52;;;;;;;10.93;5.18;;;;;;;15.70;60.99;101138.19;5078578;28;20020;-71
2022/05/16 03:46:18;;;;;;;7.93;5.00;;;;;;;15.72;61.88;101136.34;5095251;28;20110;-71
2022/05/16 03:48:44;;;;;;;11.35;5.28;;;;;;;15.64;61.89;101137.47;5075435;28;20104;-71
2022/05/16 03:51:11;;;;;;;6.47;4.57;;;;;;;15.67;61.68;101139.19;5075806;28;20020;-71
2022/05/16 03:53:45;;;;;;;9.95;4.68;;;;;;;15.58;61.93;101131.63;5073962;28;20032;-71
2022/05/16 03:56:11;;;;;;;12.80;5.50;;;;;;;15.59;61.84;101133.31;5081200;28;20398;-71
2022/05/16 03:58:36;;;;;;;8.80;4.72;;;;;;;15.57;62.51;101138.66;5088180;28;20036;-71
2022/05/16 04:01:01;;;;;;;10.13;4.47;;;;;;;15.58;62.43;101134.25;5094349;28;20043;-71
2022/05/16 04:03:27;;;;;;;9.52;4.97;;;;;;;15.57;62.33;101130.78;5095568;28;20403;-70
2022/05/16 04:05:55;;;;;;;10.45;4.90;;;;;;;15.57;62.84;101128.13;5088822;28;20027;-71
2022/05/16 04:08:20;;;;;;;8.07;4.55;;;;;;;15.49;62.43;101131.97;5074806;28;20028;-71
2022/05/16 04:10:45;;;;;;;15.07;5.68;;;;;;;15.47;62.52;101139.94;5086905;28;20068;-71
2022/05/16 04:13:10;;;;;;;9.25;5.57;;;;;;;15.44;62.88;101133.03;5094400;28;20047;-71
2022/05/16 04:15:37;;;;;;;10.77;4.85;;;;;;;15.41;63.29;101142.78;5093050;28;20168;-71
2022/05/16 04:18:02;;;;;;;9.40;5.00;;;;;;;15.43;63.53;101149.72;5095659;28;20035;-71
2022/05/16 04:20:27;;;;;;;8.00;4.70;;;;;;;15.40;64.02;101154.19;5094986;28;20020;-71
2022/05/16 04:22:53;;;;;;;14.73;4.80;;;;;;;15.40;63.60;101149.81;5088666;28;20024;-71
2022/05/16 04:25:20;;;;;;;10.63;5.18;;;;;;;15.51;63.60;101145.91;5092581;28;20055;-71
2022/05/16 04:27:45;;;;;;;10.02;4.90;;;;;;;15.50;63.22;101141.56;5094937;28;20085;-71
2022/05/16 04:30:11;;;;;;;5.50;4.28;;;;;;;15.55;63.31;101137.84;5094590;28;20024;-71
2022/05/16 04:32:37;;;;;;;9.90;4.90;;;;;;;15.64;63.83;101148.00;5095056;28;20073;-71
2022/05/16 04:35:03;;;;;;;8.68;5.47;;;;;;;15.72;63.39;101146.88;5089109;28;20016;-71
2022/05/16 04:37:32;;;;;;;9.88;4.90;;;;;;;15.78;63.39;101138.72;5092641;28;20059;-71
2022/05/16 04:39:59;;;;;;;10.48;5.28;;;;;;;15.82;63.35;101138.53;5092602;28;20032;-71
2022/05/16 04:42:43;;;;;;;11.18;5.10;;;;;;;15.83;63.46;101142.91;5094176;28;20035;-71
2022/05/16 04:45:24;;;;;;;9.93;5.05;;;;;;;15.87;61.31;101143.63;5077766;28;20090;-71
2022/05/16 04:47:53;;;;;;;10.18;5.40;;;;;;;15.97;63.00;101147.59;5093945;28;20085;-71
2022/05/16 04:50:25;;;;;;;11.25;5.53;;;;;;;16.05;61.22;101147.25;5084292;28;20020;-71
2022/05/16 04:52:50;;;;;;;12.65;5.40;;;;;;;16.13;62.59;101143.41;5094602;28;20123;-71
2022/05/16 04:55:16;;;;;;;9.57;4.90;;;;;;;16.21;62.31;101153.59;5092315;28;20110;-71
2022/05/16 04:57:42;;;;;;;9.77;5.68;;;;;;;16.32;62.85;101147.91;5094021;28;20122;-71
2022/05/16 05:00:11;;;;;;;10.45;5.38;;;;;;;16.41;61.81;101149.25;5087820;28;20157;-71
2022/05/16 05:02:36;;;;;;;13.25;5.82;;;;;;;16.46;62.19;101148.16;5093893;28;20044;-71
2022/05/16 05:05:03;;;;;;;7.72;5.07;;;;;;;16.60;61.04;101152.81;5091422;28;20032;-71
2022/05/16 05:07:29;;;;;;;9.32;5.18;;;;;;;16.71;61.19;101149.69;5093625;28;20098;-71
2022/05/16 05:15:22;;;;;;;8.90;5.68;;;;;;;17.20;59.68;101155.44;5091312;28;20042;-70
2022/05/16 05:17:47;;;;;;;12.48;5.40;;;;;;;17.31;60.26;101151.38;5091552;28;20020;-71
2022/05/16 05:20:15;;;;;;;10.55;5.32;;;;;;;17.42;59.25;101156.13;5093987;28;20521;-71
2022/05/16 05:22:46;;;;;;;11.65;5.15;;;;;;;17.46;60.05;101159.47;5092850;28;20466;-71
2022/05/16 05:25:15;;;;;;;8.95;4.90;;;;;;;17.50;59.85;101159.28;5087765;28;20059;-71
2022/05/16 05:27:41;;;;;;;10.52;5.22;;;;;;;17.52;59.44;101152.13;5092943;28;20044;-71
2022/05/16 05:30:09;;;;;;;10.50;5.50;;;;;;;17.58;58.66;101142.25;5094238;28;20028;-71
2022/05/16 05:32:35;;;;;;;7.68;5.10;;;;;;;17.65;58.03;101138.38;5091976;28;20031;-71
2022/05/16 05:35:01;;;;;;;7.57;4.68;;;;;;;17.74;58.08;101141.44;5092058;28;20024;-71
2022/05/16 05:37:26;;;;;;;12.77;4.78;;;;;;;17.85;59.14;101155.91;5093568;28;20424;-71
2022/05/16 05:39:52;;;;;;;8.55;4.63;;;;;;;17.96;58.64;101157.09;5093176;28;20036;-71
2022/05/16 05:42:18;;;;;;;6.93;4.70;;;;;;;17.96;59.71;101169.44;5092614;28;20032;-71
2022/05/16 05:44:44;;;;;;;11.95;4.60;;;;;;;18.07;59.10;101179.44;5074546;28;20570;-71
2022/05/16 05:47:09;;;;;;;11.55;4.85;;;;;;;18.08;57.37;101170.59;5092891;28;20016;-72
2022/05/16 05:49:36;;;;;;;11.88;5.43;;;;;;;18.07;57.98;101168.91;5093675;28;20035;-71
2022/05/16 05:52:02;;;;;;;9.00;5.38;;;;;;;18.06;58.06;101180.38;5093631;28;20032;-71
2022/05/16 05:54:27;;;;;;;10.52;4.82;;;;;;;18.06;58.51;101178.59;5090659;28;20121;-71
2022/05/16 05:56:53;;;;;;;12.52;4.75;;;;;;;18.08;57.95;101191.69;5086728;28;20024;-71
2022/05/16 05:59:18;;;;;;;11.43;4.72;;;;;;;18.10;58.80;101193.34;5093270;28;20379;-71
2022/05/16 06:01:43;;;;;;;12.32;4.50;;;;;;;18.14;57.94;101184.34;5077867;28;20050;-70
2022/05/16 06:04:08;;;;;;;8.57;4.05;;;;;;;18.24;60.10;101187.38;5088460;28;20365;-71
2022/05/16 06:06:34;;;;;;;11.60;4.82;;;;;;;18.33;57.38;101183.44;5086196;28;20035;-71
2022/05/16 06:08:59;;;;;;;11.27;4.75;;;;;;;18.50;56.93;101183.41;5090398;28;20054;-71
2022/05/16 06:11:28;;;;;;;11.05;4.78;;;;;;;18.64;56.53;101190.66;5072637;28;20040;-71
2022/05/16 06:13:54;;;;;;;11.88;4.70;;;;;;;18.78;56.03;101193.44;5072171;28;20028;-71
2022/05/16 06:16:19;;;;;;;8.55;4.07;;;;;;;18.91;56.98;101193.66;5081728;28;20081;-71
2022/05/16 06:18:45;;;;;;;12.27;4.78;;;;;;;18.99;55.35;101201.19;5091904;28;20111;-71
2022/05/16 06:21:10;;;;;;;9.88;4.20;;;;;;;19.01;57.29;101202.81;5090106;28;20194;-71
2022/05/16 06:23:35;;;;;;;11.65;4.53;;;;;;;19.01;56.89;101204.59;5092897;28;20032;-71
2022/05/16 06:26:00;;;;;;;13.88;4.63;;;;;;;19.03;55.92;101214.16;5091840;28;20093;-71
2022/05/16 06:28:29;;;;;;;9.95;4.68;;;;;;;19.01;55.30;101208.09;5090031;28;20032;-71
2022/05/16 06:30:56;;;;;;;9.30;4.78;;;;;;;19.01;55.60;101210.75;5091923;28;20024;-71
2022/05/16 06:33:25;;;;;;;13.40;4.30;;;;;;;18.95;56.76;101208.41;5086410;28;20032;-72
2022/05/16 06:35:51;;;;;;;17.65;4.60;;;;;;;18.88;57.17;101214.97;5071673;28;20534;-71
2022/05/16 06:38:28;;;;;;;9.35;4.15;;;;;;;18.88;57.94;101217.59;5073247;28;20115;-71
2022/05/16 06:40:55;;;;;;;12.15;4.60;;;;;;;18.89;58.13;101217.50;5072205;28;20035;-71
2022/05/16 06:43:23;;;;;;;16.75;4.80;;;;;;;18.95;57.82;101216.34;5075968;28;20020;-70
2022/05/16 06:45:49;;;;;;;13.65;4.35;;;;;;;19.06;57.02;101216.63;5087784;28;20035;-71
2022/05/16 06:48:14;;;;;;;14.80;4.80;;;;;;;19.22;57.56;101219.31;5083609;28;20530;-71
2022/05/16 06:50:41;;;;;;;13.60;4.78;;;;;;;19.34;56.39;101223.09;5073461;28;20027;-71
2022/05/16 06:53:12;;;;;;;6.32;4.65;;;;;;;19.41;56.40;101211.25;5083709;28;20028;-71
2022/05/16 06:55:37;;;;;;;8.77;4.32;;;;;;;19.46;56.83;101219.78;5071864;28;20082;-71
2022/05/16 06:58:03;;;;;;;7.15;4.15;;;;;;;19.55;56.82;101207.81;5075407;28;20031;-71
2022/05/16 07:00:28;;;;;;;10.60;4.53;;;;;;;19.59;57.66;101215.53;5088502;28;20399;-71
2022/05/16 07:02:53;;;;;;;9.98;4.95;;;;;;;19.64;57.62;101212.66;5070890;28;20052;-70
2022/05/16 07:05:19;;;;;;;8.18;4.28;;;;;;;19.78;56.25;101222.44;5078175;28;20368;-71
2022/05/16 07:07:44;;;;;;;10.88;4.88;;;;;;;19.98;55.79;101219.56;5086645;28;20052;-70
2022/05/16 07:10:10;;;;;;;9.50;4.38;;;;;;;20.13;56.53;101223.09;5081116;28;20024;-71
2022/05/16 07:12:36;;;;;;;7.90;4.00;;;;;;;20.30;56.00;101225.63;5090160;28;20111;-71
2022/05/16 07:15:02;;;;;;;7.75;4.45;;;;;;;20.42;56.21;101225.88;5088016;28;20476;-71
2022/05/16 07:17:27;;;;;;;9.57;5.57;;;;;;;20.50;56.11;101228.91;5076951;28;20120;-70
2022/05/16 07:19:53;;;;;;;13.32;4.35;;;;;;;20.57;55.66;101227.66;5087393;28;20028;-70
2022/05/16 07:22:23;;;;;;;9.45;3.88;;;;;;;20.60;56.52;101232.78;5091606;28;20119;-70
2022/05/16 07:24:51;;;;;;;6.68;4.07;;;;;;;20.63;56.65;101229.06;5091540;28;20463;-70
2022/05/16 07:30:00;;;;;;;10.93;4.20;;;;;;;20.74;55.33;101224.00;5092237;28;20085;-70
2022/05/16 07:32:34;;;;;;;8.63;3.95;;;;;;;20.84;55.97;101227.78;5091361;28;20024;-70
2022/05/16 07:35:01;;;;;;;8.32;4.00;;;;;;;21.01;56.13;101237.38;5091938;28;20028;-71
2022/05/16 07:37:26;;;;;;;7.78;3.80;;;;;;;21.20;55.34;101235.28;5091548;28;20027;-70
2022/05/16 07:39:51;;;;;;;9.02;3.83;;;;;;;21.31;55.95;101239.06;5091281;28;20028;-70
2022/05/16 07:42:17;;;;;;;9.52;3.97;;;;;;;21.44;55.61;101234.75;5091688;28;20032;-71
2022/05/16 07:44:42;;;;;;;10.18;3.40;;;;;;;21.53;54.93;101233.31;5091505;28;20422;-71
2022/05/16 07:47:08;;;;;;;15.23;3.88;;;;;;;21.52;56.28;101237.78;5091337;28;20023;-70
2022/05/16 07:49:33;;;;;;;9.32;3.83;;;;;;;21.53;54.99;101244.78;5091206;28;20047;-71
2022/05/16 07:51:58;;;;;;;10.00;3.97;;;;;;;21.54;55.26;101246.47;5091896;28;20024;-70
2022/05/16 07:54:23;;;;;;;9.77;3.90;;;;;;;21.43;55.86;101251.63;5090898;28;20036;-71
2022/05/16 07:56:49;;;;;;;7.07;3.35;;;;;;;21.22;57.55;101256.41;5091723;28;20024;-71
2022/05/16 07:59:16;;;;;;;7.13;3.63;;;;;;;20.94;57.72;101247.50;5090843;28;20032;-71
2022/05/16 08:01:41;;;;;;;9.77;3.90;;;;;;;20.76;59.02;101253.88;5091180;28;20044;-70
2022/05/16 08:04:07;;;;;;;7.68;3.92;;;;;;;20.79;58.02;101259.84;5091982;28;20364;-71
2022/05/16 08:06:34;;;;;;;10.88;3.35;;;;;;;20.74;58.31;101255.78;5090311;28;20058;-71
2022/05/16 08:11:44;;;;;;;8.90;3.85;;;;;;;20.53;58.84;101248.13;5091323;28;20081;-70
2022/05/16 08:14:11;;;;;;;9.60;3.83;;;;;;;20.56;58.96;101257.72;5090838;28;20032;-70
2022/05/16 08:16:37;;;;;;;9.10;3.88;;;;;;;20.71;58.66;101253.31;5091488;28;20024;-71
2022/05/16 08:19:05;;;;;;;9.98;3.67;;;;;;;21.03;59.58;101256.69;5091615;28;20024;-70
2022/05/16 08:21:31;;;;;;;8.77;3.25;;;;;;;21.34;59.09;101263.59;5090608;28;20066;-71
2022/05/16 08:23:56;;;;;;;10.80;4.05;;;;;;;21.65;56.51;101264.38;5091758;28;20060;-71
2022/05/16 08:26:21;;;;;;;9.57;3.83;;;;;;;21.89;56.66;101264.63;5094617;28;20103;-71
2022/05/16 08:28:47;;;;;;;10.65;2.95;;;;;;;22.15;54.52;101268.22;5094393;28;20074;-71
2022/05/16 08:31:13;;;;;;;7.70;3.03;;;;;;;22.40;53.65;101267.50;5095142;28;20035;-71
2022/05/16 08:33:39;;;;;;;7.15;3.50;;;;;;;22.59;52.41;101261.81;5094820;28;20027;-70
2022/05/16 08:41:46;;;;;;;10.63;3.30;;;;;;;23.07;52.97;101262.94;5094016;28;20035;-71
2022/05/16 08:44:20;;;;;;;7.13;3.35;;;;;;;23.25;51.09;101265.28;5094949;28;20020;-71
2022/05/16 08:46:46;;;;;;;5.53;3.10;;;;;;;23.39;50.95;101261.66;5094565;28;20114;-70
2022/05/16 08:49:47;;;;;;;17.10;3.30;;;;;;;23.58;50.81;101272.72;5094082;28;20031;-71
2022/05/16 08:52:25;;;;;;;5.63;3.25;;;;;;;23.70;50.33;101247.88;5094716;28;20382;-71
2022/05/16 08:55:08;;;;;;;8.30;2.63;;;;;;;23.93;49.54;101261.34;5094402;28;20032;-71
2022/05/16 08:57:36;;;;;;;;;;;;;;;23.98;49.24;101260.03;5094082;28;20028;-71
2022/05/16 09:00:37;;;;;;;9.32;2.92;;;;;;;24.05;48.46;101263.09;5094677;28;19907;-71
2022/05/16 09:03:06;;;;;;;6.30;3.15;;;;;;;24.21;49.93;101257.50;5088805;28;20036;-71
2022/05/16 09:05:39;;;;;;;9.93;3.22;;;;;;;24.34;48.98;101249.44;5094059;28;20024;-71
2022/05/16 09:08:10;;;;;;;7.85;2.90;;;;;;;24.58;48.81;101263.59;5094502;28;20392;-71
2022/05/16 09:10:53;;;;;;;6.05;2.90;;;;;;;24.67;47.31;101262.91;5093595;28;20024;-71
2022/05/16 09:13:34;;;;;;;6.20;3.03;;;;;;;24.68;48.36;101263.75;5094380;28;20035;-71
2022/05/16 09:16:14;;;;;;;7.07;3.25;;;;;;;24.64;47.52;101262.28;5094243;28;20036;-71
2022/05/16 09:19:07;;;;;;;6.95;2.80;;;;;;;24.64;48.43;101262.28;5094025;28;20031;-71
2022/05/16 09:21:52;;;;;;;9.43;3.53;;;;;;;24.67;48.02;101256.72;5083222;28;20518;-71
2022/05/16 09:24:35;;;;;;;6.30;3.25;;;;;;;24.84;48.46;101256.28;5063108;28;20052;-77
2022/05/16 09:27:09;;;;;;;6.60;3.15;;;;;;;25.00;46.79;101263.94;5090960;28;20043;-77
2022/05/16 09:29:45;;;;;;;6.68;3.20;;;;;;;25.12;47.50;101255.03;5090319;28;20023;-77
2022/05/16 09:32:27;;;;;;;8.13;2.97;;;;;;;25.22;47.08;101269.34;5080954;28;20033;-77
2022/05/16 09:34:53;;;;;;;6.68;3.10;;;;;;;25.35;46.22;101265.72;5078785;28;20024;-78
2022/05/16 09:37:18;;;;;;;7.38;3.50;;;;;;;25.52;44.87;101269.72;5072192;28;20029;-77
2022/05/16 09:39:44;;;;;;;8.05;3.10;;;;;;;25.57;45.84;101270.19;5073935;28;20029;-77
2022/05/16 09:42:15;;;;;;;9.43;3.30;;;;;;;25.72;45.03;101270.78;5073565;28;20024;-74
2022/05/16 09:44:47;;;;;;;5.88;3.13;;;;;;;25.96;45.33;101276.81;5072579;28;20069;-74
2022/05/16 09:47:19;;;;;;;6.82;3.75;;;;;;;26.23;44.58;101276.41;5093403;28;20035;-74
2022/05/16 09:50:03;;;;;;;8.80;3.20;;;;;;;26.32;44.21;101275.63;5084170;28;20036;-74
2022/05/16 09:52:34;;;;;;;6.75;3.05;;;;;;;26.55;43.43;101294.25;5073005;28;20033;-74
2022/05/16 09:55:10;;;;;;;8.18;3.10;;;;;;;26.71;42.16;101286.63;5073494;28;20028;-75
2022/05/16 09:57:47;;;;;;;8.00;3.47;;;;;;;27.01;43.68;101306.41;5083079;28;20042;-74
2022/05/16 10:00:31;;;;;;;7.25;3.55;;;;;;;27.26;41.39;101303.34;5091746;28;20031;-74
2022/05/16 10:03:16;;;;;;;30.85;4.20;;;;;;;27.47;41.12;101311.34;5073193;28;20094;-74
2022/05/16 10:05:47;;;;;;;33.40;5.40;;;;;;;27.39;42.71;101324.53;5072906;28;20433;-74
2022/05/16 10:08:17;;;;;;;9.80;3.65;;;;;;;27.33;40.83;101325.06;5072761;28;20090;-74
2022/05/16 10:10:45;;;;;;;8.55;3.80;;;;;;;27.40;42.92;101326.22;5074575;28;20032;-74
2022/05/16 10:13:12;;;;;;;14.85;3.90;;;;;;;27.13;42.07;101326.78;5072161;28;20542;-74
2022/05/16 10:15:37;;;;;;;9.05;4.03;;;;;;;26.62;43.28;101330.22;5072574;28;20177;-75
2022/05/16 10:18:07;;;;;;;10.43;3.63;;;;;;;26.12;44.87;101329.84;5072817;28;20498;-75
2022/05/16 10:20:40;;;;;;;8.38;4.10;;;;;;;25.55;46.46;101337.06;5072958;28;20491;-73
2022/05/16 10:23:08;;;;;;;;;;;;;;;25.30;46.38;101356.78;5071552;28;20476;-74
2022/05/16 10:25:42;;;;;;;24.67;4.70;;;;;;;24.53;49.54;101367.91;5083052;28;20372;-75
2022/05/16 10:28:14;;;;;;;23.67;5.00;;;;;;;23.51;56.73;101393.81;5092597;28;20028;-76
2022/05/16 10:33:28;;;;;;;19.30;6.32;;;;;;;21.14;79.48;101407.13;5072518;28;20039;-75
2022/05/16 10:36:01;;;;;;;11.05;5.97;;;;;;;20.58;82.86;101406.81;5081135;28;20034;-77
2022/05/16 10:38:35;;;;;;;15.30;6.22;;;;;;;20.46;82.95;101412.75;5077152;28;20036;-75
2022/05/16 10:41:05;;;;;;;13.70;6.25;;;;;;;20.59;86.50;101411.16;5071832;28;20023;-75
2022/05/16 10:43:40;;;;;;;12.55;6.78;;;;;;;20.76;87.21;101421.69;5073114;28;20468;-74
2022/05/16 10:46:12;;;;;;;15.15;6.60;;;;;;;21.23;88.99;101425.16;5092379;28;20138;-74
2022/05/16 10:48:44;;;;;;;11.73;5.97;;;;;;;21.44;87.49;101415.09;5084297;28;20433;-74
2022/05/16 10:51:23;;;;;;;12.40;5.95;;;;;;;21.52;83.24;101420.81;5089649;28;20039;-75
2022/05/16 10:54:05;;;;;;;14.10;6.30;;;;;;;21.60;86.16;101425.66;5091226;28;20444;-75
2022/05/16 10:57:04;;;;;;;13.70;6.18;;;;;;;21.56;84.65;101426.78;5082189;28;20024;-75
2022/05/16 10:59:47;;;;;;;10.50;6.40;;;;;;;21.57;83.19;101420.53;5071929;28;20029;-74
2022/05/16 11:02:19;;;;;;;17.02;6.22;;;;;;;21.55;81.63;101423.28;5091051;28;20134;-74
2022/05/16 11:05:21;;;;;;;12.00;5.05;;;;;;;21.43;81.06;101429.31;5086597;28;20021;-74
2022/05/16 11:08:08;;;;;;;10.55;6.05;;;;;;;21.37;80.07;101429.69;5074314;28;20417;-75
2022/05/16 11:11:02;;;;;;;9.50;5.40;;;;;;;21.39;80.30;101430.44;5089035;28;20031;-75
2022/05/16 11:13:48;;;;;;;12.48;5.82;;;;;;;21.43;79.50;101437.28;5076255;28;20066;-75
2022/05/16 11:16:28;;;;;;;10.45;6.20;;;;;;;21.57;78.85;101439.09;5071620;28;20074;-75
2022/05/16 11:19:27;;;;;;;7.78;5.05;;;;;;;21.99;73.97;101427.66;5085052;28;20448;-75
2022/05/16 11:22:21;;;;;;;11.48;5.60;;;;;;;22.46;70.06;101426.47;5090043;28;20367;-75
2022/05/16 11:25:00;;;;;;;11.30;5.63;;;;;;;22.58;73.07;101425.69;5091487;28;20426;-75
2022/05/16 11:27:46;;;;;;;17.35;5.72;;;;;;;22.30;72.84;101439.03;5089223;28;20384;-75
2022/05/16 11:30:34;;;;;;;12.68;6.20;;;;;;;21.75;77.35;101432.69;5077977;28;20031;-74
2022/05/16 11:33:09;;;;;;;10.88;6.78;;;;;;;21.05;84.15;101440.34;5091564;28;20034;-74
2022/05/16 11:35:48;;;;;;;13.40;7.35;;;;;;;20.67;83.53;101448.69;5091572;28;20028;-77
2022/05/16 11:38:23;;;;;;;12.82;7.35;;;;;;;20.50;87.71;101460.19;5085519;28;20035;-76
2022/05/16 11:41:07;;;;;;;15.50;7.75;;;;;;;20.44;85.57;101460.53;5073095;28;20111;-76
2022/05/16 11:43:36;;;;;;;13.13;8.02;;;;;;;20.42;84.73;101457.09;5070906;28;20469;-76
2022/05/16 11:46:21;;;;;;;13.80;7.72;;;;;;;20.60;85.00;101451.75;5083425;28;20119;-76
2022/05/16 11:48:50;;;;;;;11.68;7.70;;;;;;;20.67;84.31;101467.25;5090073;28;20114;-76
2022/05/16 11:51:35;;;;;;;13.20;7.50;;;;;;;20.61;82.35;101458.78;5091162;28;20483;-76
2022/05/16 11:54:03;;;;;;;12.77;6.93;;;;;;;20.62;81.85;101466.63;5084858;28;20039;-77
2022/05/16 12:02:35;;;;;;;13.68;7.15;;;;;;;20.90;75.00;101465.09;5076711;28;20039;-74
2022/05/16 12:05:00;;;;;;;11.15;8.52;;;;;;;20.75;76.66;101488.84;5085863;28;20476;-74
2022/05/16 12:07:39;;;;;;;13.40;9.50;;;;;;;20.80;76.67;101484.16;5094926;28;20034;-74